createdAt,value
2017-12-30T00:01:52.225Z,2.47
2017-12-30T00:04:20.474Z,3.23
2017-12-30T00:06:47.952Z,3.00
2017-12-30T00:09:15.425Z,2.80
2017-12-30T00:11:42.848Z,3.27
2017-12-30T00:14:11.103Z,3.10
2017-12-30T00:16:38.515Z,2.70
2017-12-30T00:19:05.989Z,3.27
2017-12-30T00:21:33.460Z,2.33
2017-12-30T00:24:00.929Z,2.10
2017-12-30T00:26:28.401Z,3.00
2017-12-30T00:28:55.874Z,2.07
2017-12-30T00:31:23.341Z,2.87
2017-12-30T00:33:50.775Z,2.20
2017-12-30T00:36:18.202Z,2.10
2017-12-30T00:38:45.635Z,2.27
2017-12-30T00:41:13.068Z,1.90
2017-12-30T00:43:40.556Z,2.27
2017-12-30T00:46:08.022Z,2.50
2017-12-30T00:48:36.259Z,1.77
2017-12-30T00:51:03.749Z,2.10
2017-12-30T00:53:31.215Z,1.90
2017-12-30T00:55:58.655Z,2.20
2017-12-30T00:58:26.906Z,2.00
2017-12-30T01:00:54.366Z,2.10
2017-12-30T01:03:21.789Z,1.90
2017-12-30T01:05:49.224Z,1.77
2017-12-30T01:08:16.661Z,1.97
2017-12-30T01:10:44.864Z,2.27
2017-12-30T01:13:13.068Z,2.07
2017-12-30T01:15:41.281Z,1.90
2017-12-30T01:18:08.703Z,2.13
2017-12-30T01:20:36.147Z,1.97
2017-12-30T01:23:03.587Z,2.20
2017-12-30T01:25:31.030Z,1.70
2017-12-30T01:27:58.463Z,1.47
2017-12-30T01:30:26.669Z,1.20
2017-12-30T01:32:54.102Z,1.60
2017-12-30T01:35:21.537Z,1.40
2017-12-30T01:37:48.990Z,1.40
2017-12-30T01:40:16.414Z,1.80
2017-12-30T01:42:43.860Z,1.77
2017-12-30T01:45:12.059Z,1.57
2017-12-30T01:47:40.267Z,1.50
2017-12-30T01:50:07.695Z,1.83
2017-12-30T01:52:35.660Z,1.70
2017-12-30T01:55:03.092Z,1.63
2017-12-30T01:57:30.526Z,1.50
2017-12-30T01:59:57.966Z,1.27
2017-12-30T02:02:26.171Z,1.30
2017-12-30T02:04:54.364Z,2.30
2017-12-30T02:07:22.571Z,1.80
2017-12-30T02:09:50.003Z,1.47
2017-12-30T02:12:17.443Z,1.30
2017-12-30T02:14:44.879Z,1.80
2017-12-30T02:17:12.335Z,1.63
2017-12-30T02:19:39.761Z,2.20
2017-12-30T02:22:07.970Z,1.40
2017-12-30T02:24:36.803Z,1.07
2017-12-30T02:27:04.256Z,1.40
2017-12-30T02:29:32.461Z,1.50
2017-12-30T02:32:00.668Z,1.80
2017-12-30T02:34:28.120Z,1.30
2017-12-30T02:36:55.548Z,1.83
2017-12-30T02:39:22.986Z,1.80
2017-12-30T02:41:51.183Z,1.40
2017-12-30T02:44:18.625Z,1.40
2017-12-30T02:46:46.071Z,1.47
2017-12-30T02:49:14.277Z,2.13
2017-12-30T02:51:41.693Z,1.20
2017-12-30T02:54:09.132Z,1.57
2017-12-30T02:56:36.702Z,1.57
2017-12-30T02:59:04.903Z,1.50
2017-12-30T03:01:33.118Z,1.60
2017-12-30T03:43:19.048Z,3.27
2017-12-30T03:45:47.251Z,3.00
2017-12-30T03:48:15.452Z,3.90
2017-12-30T03:50:43.672Z,4.43
2017-12-30T03:53:11.112Z,3.00
2017-12-30T03:55:38.548Z,2.50
2017-12-30T03:58:05.994Z,2.47
2017-12-30T04:00:34.197Z,2.30
2017-12-30T04:03:02.408Z,2.90
2017-12-30T04:05:29.855Z,2.50
2017-12-30T04:07:58.073Z,2.58
2017-12-30T04:10:26.287Z,2.50
2017-12-30T04:12:53.729Z,3.00
2017-12-30T04:15:21.188Z,2.37
2017-12-30T04:17:48.623Z,2.10
2017-12-30T04:20:16.066Z,2.40
2017-12-30T04:22:43.504Z,2.40
2017-12-30T04:25:10.957Z,2.30
2017-12-30T04:27:39.151Z,2.33
2017-12-30T04:30:07.363Z,2.10
2017-12-30T04:32:34.811Z,2.35
2017-12-30T04:35:02.247Z,2.70
2017-12-30T04:37:29.724Z,2.17
2017-12-30T04:39:57.618Z,2.62
2017-12-30T04:42:25.046Z,3.10
2017-12-30T04:44:52.485Z,3.27
2017-12-30T04:47:19.937Z,3.10
2017-12-30T04:49:47.971Z,2.50
2017-12-30T04:52:15.423Z,2.80
2017-12-30T04:54:42.851Z,2.72
2017-12-30T04:57:10.310Z,3.08
2017-12-30T04:59:37.747Z,3.20
2017-12-30T05:02:05.202Z,7.35
2017-12-30T05:04:32.639Z,2.20
2017-12-30T05:07:00.091Z,2.30
2017-12-30T05:09:28.258Z,2.30
2017-12-30T05:11:55.738Z,2.40
2017-12-30T05:14:23.168Z,2.30
2017-12-30T05:16:50.604Z,2.40
2017-12-30T05:19:18.826Z,2.28
2017-12-30T05:21:46.256Z,2.30
2017-12-30T05:24:13.715Z,4.20
2017-12-30T05:26:41.156Z,7.15
2017-12-30T05:29:09.364Z,8.27
2017-12-30T05:31:37.563Z,4.50
2017-12-30T05:34:05.035Z,4.28
2017-12-30T05:36:33.237Z,3.30
2017-12-30T05:39:01.455Z,2.83
2017-12-30T05:41:28.881Z,2.57
2017-12-30T05:43:56.816Z,1.75
2017-12-30T05:46:24.255Z,2.87
2017-12-30T05:48:51.690Z,2.70
2017-12-30T05:51:19.123Z,2.00
2017-12-30T05:53:46.571Z,2.10
2017-12-30T05:56:14.008Z,2.30
2017-12-30T05:58:42.207Z,3.10
2017-12-30T06:01:10.407Z,3.40
2017-12-30T06:03:37.855Z,3.25
2017-12-30T06:06:05.301Z,2.60
2017-12-30T06:08:32.752Z,2.93
2017-12-30T06:11:00.182Z,2.70
2017-12-30T06:13:28.356Z,2.65
2017-12-30T06:15:56.168Z,3.25
2017-12-30T06:18:23.590Z,3.62
2017-12-30T06:20:51.791Z,3.90
2017-12-30T06:23:19.988Z,4.27
2017-12-30T06:25:48.191Z,4.70
2017-12-30T06:28:16.383Z,3.08
2017-12-30T06:30:44.651Z,2.58
2017-12-30T06:33:12.074Z,2.53
2017-12-30T06:35:39.507Z,2.20
2017-12-30T06:38:06.951Z,2.65
2017-12-30T06:40:34.391Z,2.50
2017-12-30T06:43:02.595Z,2.50
2017-12-30T06:45:30.795Z,2.70
2017-12-30T06:47:58.999Z,2.50
2017-12-30T06:50:27.072Z,2.37
2017-12-30T06:52:54.503Z,2.20
2017-12-30T06:55:21.959Z,2.33
2017-12-30T06:57:50.156Z,2.10
2017-12-30T07:00:17.599Z,1.70
2017-12-30T07:02:45.042Z,2.30
2017-12-30T07:05:12.500Z,1.87
2017-12-30T07:07:39.935Z,3.50
2017-12-30T07:10:07.382Z,3.60
2017-12-30T07:12:34.843Z,3.33
2017-12-30T07:15:03.045Z,2.10
2017-12-30T07:17:30.493Z,2.17
2017-12-30T07:19:58.780Z,2.60
2017-12-30T07:22:26.518Z,2.72
2017-12-30T07:24:54.704Z,2.47
2017-12-30T07:27:22.908Z,1.73
2017-12-30T07:29:50.361Z,1.95
2017-12-30T07:32:18.558Z,1.33
2017-12-30T07:34:45.996Z,1.58
2017-12-30T07:37:13.453Z,1.50
2017-12-30T07:39:40.899Z,1.20
2017-12-30T07:42:08.340Z,1.40
2017-12-30T07:44:35.786Z,1.20
2017-12-30T07:47:03.226Z,1.27
2017-12-30T07:49:30.663Z,1.50
2017-12-30T07:51:58.856Z,1.40
2017-12-30T07:54:26.545Z,1.30
2017-12-30T07:56:53.991Z,1.70
2017-12-30T07:59:21.418Z,1.40
2017-12-30T08:01:48.870Z,1.47
2017-12-30T08:04:17.071Z,1.60
2017-12-30T08:06:44.512Z,1.50
2017-12-30T08:09:11.957Z,1.50
2017-12-30T08:11:39.391Z,1.40
2017-12-30T08:14:06.827Z,1.62
2017-12-30T08:16:34.268Z,1.48
2017-12-30T08:19:02.471Z,1.50
2017-12-30T08:21:30.683Z,1.83
2017-12-30T08:23:58.733Z,1.60
2017-12-30T08:26:26.167Z,1.58
2017-12-30T08:28:53.608Z,1.37
2017-12-30T08:31:21.808Z,1.55
2017-12-30T08:33:50.025Z,1.45
2017-12-30T08:36:17.469Z,1.40
2017-12-30T08:38:44.923Z,1.30
2017-12-30T08:41:12.355Z,1.33
2017-12-30T08:43:40.585Z,1.50
2017-12-30T08:46:08.032Z,1.05
2017-12-30T08:48:36.242Z,1.10
2017-12-30T08:51:03.684Z,1.20
2017-12-30T08:53:31.132Z,1.20
2017-12-30T08:55:59.028Z,1.40
2017-12-30T08:58:26.485Z,1.50
2017-12-30T09:00:53.938Z,1.50
2017-12-30T09:03:22.186Z,1.35
2017-12-30T09:05:49.612Z,1.70
2017-12-30T09:08:17.043Z,1.50
2017-12-30T09:10:44.494Z,1.50
2017-12-30T09:13:12.690Z,1.93
2017-12-30T09:15:40.907Z,1.00
2017-12-30T09:18:08.339Z,1.47
2017-12-30T09:20:35.775Z,1.80
2017-12-30T09:23:03.205Z,1.10
2017-12-30T09:25:30.654Z,1.43
2017-12-30T09:27:58.089Z,1.40
2017-12-30T09:30:26.294Z,1.90
2017-12-30T09:32:53.732Z,1.37
2017-12-30T09:35:21.185Z,1.67
2017-12-30T09:37:48.625Z,0.93
2017-12-30T09:40:16.837Z,0.93
2017-12-30T09:42:44.271Z,1.20
2017-12-30T09:45:11.721Z,3.07
2017-12-30T09:47:39.163Z,1.30
2017-12-30T09:50:07.371Z,1.60
2017-12-30T09:52:35.572Z,1.10
2017-12-30T09:55:03.793Z,1.17
2017-12-30T09:57:31.228Z,1.10
2017-12-30T09:59:59.324Z,1.50
2017-12-30T10:02:26.758Z,1.60
2017-12-30T10:04:54.190Z,0.93
2017-12-30T10:07:21.631Z,1.30
2017-12-30T10:09:49.063Z,0.83
2017-12-30T10:12:17.273Z,1.27
2017-12-30T10:14:45.472Z,1.20
2017-12-30T10:17:13.690Z,1.20
2017-12-30T10:19:41.118Z,1.00
2017-12-30T10:22:08.550Z,1.10
2017-12-30T10:24:36.022Z,1.00
2017-12-30T10:27:03.477Z,1.10
2017-12-30T10:29:30.918Z,0.93
2017-12-30T10:31:58.602Z,1.00
2017-12-30T10:34:26.045Z,1.80
2017-12-30T10:36:53.490Z,0.90
2017-12-30T10:39:20.924Z,1.27
2017-12-30T10:41:48.366Z,1.00
2017-12-30T10:44:16.554Z,1.10
2017-12-30T10:46:43.995Z,1.30
2017-12-30T10:49:11.433Z,1.03
2017-12-30T10:51:39.661Z,1.03
2017-12-30T10:54:07.091Z,1.40
2017-12-30T10:56:34.535Z,0.70
2017-12-30T10:59:01.973Z,0.97
2017-12-30T11:01:30.181Z,1.03
2017-12-30T11:03:57.621Z,0.70
2017-12-30T11:06:25.067Z,0.70
2017-12-30T11:08:52.509Z,0.70
2017-12-30T11:11:20.713Z,0.97
2017-12-30T11:13:48.926Z,0.90
2017-12-30T11:16:16.360Z,0.80
2017-12-30T11:18:43.805Z,0.97
2017-12-30T11:21:11.242Z,0.90
2017-12-30T11:23:40.292Z,1.60
2017-12-30T11:26:07.723Z,1.90
2017-12-30T11:28:35.166Z,1.70
2017-12-30T11:31:02.587Z,2.60
2017-12-30T11:33:30.026Z,2.20
2017-12-30T11:35:57.464Z,2.17
2017-12-30T11:38:25.670Z,0.93
2017-12-30T11:40:53.863Z,1.00
2017-12-30T11:43:22.074Z,1.37
2017-12-30T11:45:49.512Z,1.13
2017-12-30T11:48:16.964Z,1.63
2017-12-30T11:50:44.392Z,1.27
2017-12-30T11:53:12.600Z,1.97
2017-12-30T11:55:40.810Z,1.70
2017-12-30T11:58:09.005Z,2.00
2017-12-30T12:00:37.211Z,1.50
2017-12-30T12:03:04.643Z,1.30
2017-12-30T12:05:32.079Z,0.90
2017-12-30T12:08:00.228Z,1.70
2017-12-30T12:10:28.010Z,1.13
2017-12-30T12:12:55.427Z,2.23
2017-12-30T12:15:23.642Z,1.17
2017-12-30T12:17:51.075Z,2.10
2017-12-30T12:20:18.523Z,2.17
2017-12-30T12:22:45.955Z,1.20
2017-12-30T12:25:14.165Z,1.30
2017-12-30T12:27:42.370Z,1.40
2017-12-30T12:30:10.576Z,2.03
2017-12-30T12:32:38.012Z,1.80
2017-12-30T12:35:05.451Z,2.03
2017-12-30T12:37:32.883Z,1.90
2017-12-30T12:40:01.090Z,1.40
2017-12-30T12:42:29.991Z,0.90
2017-12-30T12:44:57.423Z,1.43
2017-12-30T12:47:24.855Z,1.60
2017-12-30T12:49:53.077Z,1.30
2017-12-30T12:52:20.505Z,1.00
2017-12-30T12:54:48.699Z,1.50
2017-12-30T12:57:16.143Z,1.30
2017-12-30T12:59:43.567Z,1.23
2017-12-30T13:02:11.007Z,1.20
2017-12-30T13:04:38.435Z,1.20
2017-12-30T13:07:05.928Z,1.10
2017-12-30T13:29:10.242Z,1.50
2017-12-30T13:31:37.691Z,2.08
2017-12-30T13:34:05.166Z,1.80
2017-12-30T13:36:33.367Z,2.30
2017-12-30T13:39:01.576Z,1.50
2017-12-30T13:41:29.018Z,1.70
2017-12-30T13:43:56.456Z,1.97
2017-12-30T13:46:23.913Z,2.47
2017-12-30T13:48:52.123Z,1.73
2017-12-30T13:51:19.558Z,1.13
2017-12-30T13:53:47.007Z,1.70
2017-12-30T13:56:14.443Z,2.37
2017-12-30T13:58:42.648Z,2.60
2017-12-30T14:01:10.787Z,3.47
2017-12-30T14:03:38.575Z,2.33
2017-12-30T14:06:06.032Z,2.83
2017-12-30T14:08:33.525Z,3.07
2017-12-30T14:11:01.684Z,2.90
2017-12-30T14:13:29.900Z,2.70
2017-12-30T14:15:57.337Z,2.07
2017-12-30T14:18:24.782Z,2.33
2017-12-30T14:20:52.217Z,3.40
2017-12-30T14:23:20.467Z,2.43
2017-12-30T14:25:47.964Z,2.70
2017-12-30T14:28:15.363Z,2.60
2017-12-30T14:30:42.802Z,2.43
2017-12-30T14:33:10.240Z,3.03
2017-12-30T14:35:38.986Z,2.50
2017-12-30T14:38:06.426Z,2.07
2017-12-30T14:40:34.628Z,2.30
2017-12-30T14:43:02.869Z,2.20
2017-12-30T14:45:30.290Z,2.27
2017-12-30T14:47:57.737Z,2.83
2017-12-30T14:50:25.248Z,2.40
2017-12-30T14:52:52.663Z,1.80
2017-12-30T14:55:20.873Z,3.40
2017-12-30T14:57:48.311Z,2.70
2017-12-30T15:00:15.747Z,2.30
2017-12-30T15:02:43.193Z,3.47
2017-12-30T15:05:10.625Z,2.73
2017-12-30T15:07:38.573Z,5.40
2017-12-30T15:10:06.814Z,5.93
2017-12-30T15:12:34.231Z,2.30
2017-12-30T15:15:02.522Z,3.13
2017-12-30T15:17:29.929Z,2.47
2017-12-30T15:19:58.132Z,3.67
2017-12-30T15:22:25.568Z,4.60
2017-12-30T15:24:53.007Z,3.50
2017-12-30T15:27:20.444Z,4.63
2017-12-30T15:29:48.613Z,5.50
2017-12-30T15:32:16.050Z,9.47
2017-12-30T15:34:44.271Z,9.90
2017-12-30T15:37:11.698Z,6.70
2017-12-30T15:39:39.983Z,4.90
2017-12-30T15:42:07.412Z,3.60
2017-12-30T15:44:34.848Z,4.07
2017-12-30T15:47:02.279Z,3.53
2017-12-30T15:49:30.531Z,5.67
2017-12-30T15:51:57.967Z,3.80
2017-12-30T15:54:25.401Z,4.90
2017-12-30T15:56:52.885Z,4.50
2017-12-30T15:59:21.075Z,5.27
2017-12-30T16:01:48.525Z,4.60
2017-12-30T16:04:15.967Z,5.60
2017-12-30T16:06:43.408Z,4.40
2017-12-30T16:09:10.856Z,4.57
2017-12-30T16:11:38.804Z,6.00
2017-12-30T16:14:06.233Z,6.33
2017-12-30T16:16:33.719Z,4.20
2017-12-30T16:19:01.144Z,4.63
2017-12-30T16:21:28.580Z,5.90
2017-12-30T16:23:56.015Z,4.83
2017-12-30T16:26:23.462Z,5.23
2017-12-30T16:28:50.926Z,5.40
2017-12-30T16:31:18.370Z,5.13
2017-12-30T16:33:45.804Z,6.73
2017-12-30T16:36:13.252Z,5.50
2017-12-30T16:38:40.694Z,16.10
2017-12-30T16:41:08.128Z,6.03
2017-12-30T16:43:35.573Z,4.87
2017-12-30T16:46:03.769Z,5.23
2017-12-30T16:48:31.968Z,5.57
2017-12-30T16:51:00.163Z,8.00
2017-12-30T16:53:28.375Z,5.53
2017-12-30T16:55:56.563Z,5.40
2017-12-30T16:58:24.764Z,6.00
2017-12-30T17:00:52.960Z,6.00
2017-12-30T17:03:21.167Z,8.80
2017-12-30T17:05:49.364Z,5.80
2017-12-30T17:08:17.579Z,8.70
2017-12-30T17:10:45.010Z,8.07
2017-12-30T17:13:12.455Z,5.80
2017-12-30T17:15:39.890Z,7.20
2017-12-30T17:18:08.083Z,6.60
2017-12-30T17:20:36.290Z,7.43
2017-12-30T17:23:04.505Z,6.80
2017-12-30T17:25:31.935Z,5.47
2017-12-30T17:27:59.414Z,4.60
2017-12-30T17:30:26.852Z,5.87
2017-12-30T17:32:54.330Z,6.13
2017-12-30T17:35:22.575Z,4.77
2017-12-30T17:37:50.037Z,5.27
2017-12-30T17:40:17.506Z,4.00
2017-12-30T17:42:44.923Z,5.33
2017-12-30T17:45:12.375Z,5.30
2017-12-30T17:47:39.859Z,3.80
2017-12-30T17:50:07.375Z,4.67
2017-12-30T17:52:34.847Z,5.57
2017-12-30T17:55:02.318Z,4.63
2017-12-30T17:57:29.781Z,5.40
2017-12-30T17:59:57.262Z,5.60
2017-12-30T18:02:24.727Z,9.00
2017-12-30T18:04:52.167Z,7.43
2017-12-30T18:07:19.655Z,6.87
2017-12-30T18:09:47.086Z,4.87
2017-12-30T18:12:14.558Z,5.70
2017-12-30T18:14:42.038Z,7.17
2017-12-30T18:17:10.024Z,6.27
2017-12-30T18:19:37.505Z,4.50
2017-12-30T18:22:04.957Z,5.20
2017-12-30T18:24:32.447Z,6.10
2017-12-30T18:27:00.682Z,5.50
2017-12-30T18:29:28.098Z,4.87
2017-12-30T18:31:55.573Z,4.37
2017-12-30T18:34:22.991Z,3.63
2017-12-30T18:36:50.485Z,3.87
2017-12-30T18:39:18.718Z,3.87
2017-12-30T18:41:46.177Z,3.60
2017-12-30T18:44:13.637Z,3.93
2017-12-30T18:46:41.155Z,3.50
2017-12-30T18:49:08.634Z,3.63
2017-12-30T18:51:36.102Z,4.07
2017-12-30T18:54:03.575Z,5.20
2017-12-30T18:56:31.045Z,4.53
2017-12-30T18:58:59.236Z,4.33
2017-12-30T19:01:27.494Z,5.67
2017-12-30T19:03:54.945Z,5.73
2017-12-30T19:06:22.437Z,6.00
2017-12-30T19:08:49.902Z,6.40
2017-12-30T19:11:17.396Z,4.70
2017-12-30T19:13:44.868Z,5.63
2017-12-30T19:16:12.356Z,5.63
2017-12-30T19:18:39.840Z,7.00
2017-12-30T19:21:07.316Z,7.10
2017-12-30T19:23:34.816Z,8.20
2017-12-30T19:26:02.296Z,7.40
2017-12-30T19:28:29.721Z,4.13
2017-12-30T19:30:57.973Z,4.33
2017-12-30T19:33:25.452Z,5.47
2017-12-30T19:35:52.925Z,4.67
2017-12-30T19:38:20.947Z,6.13
2017-12-30T19:40:48.421Z,4.70
2017-12-30T19:43:15.860Z,5.27
2017-12-30T19:45:43.352Z,5.40
2017-12-30T19:48:10.845Z,6.30
2017-12-30T19:50:38.325Z,6.70
2017-12-30T19:53:05.822Z,6.07
2017-12-30T19:55:33.311Z,5.27
2017-12-30T19:58:00.803Z,6.20
2017-12-30T20:00:28.285Z,4.73
2017-12-30T20:02:55.837Z,4.40
2017-12-30T20:05:24.027Z,3.70
2017-12-30T20:07:51.826Z,4.20
2017-12-30T20:10:19.287Z,4.50
2017-12-30T20:12:47.252Z,4.57
2017-12-30T20:15:14.724Z,4.00
2017-12-30T20:17:42.198Z,4.30
2017-12-30T20:20:09.673Z,5.10
2017-12-30T20:22:37.157Z,4.40
2017-12-30T20:25:04.650Z,4.00
2017-12-30T20:27:32.114Z,4.37
2017-12-30T20:29:59.616Z,4.80
2017-12-30T20:32:27.086Z,4.37
2017-12-30T20:34:54.576Z,4.50
2017-12-30T20:37:22.823Z,3.47
2017-12-30T20:39:50.302Z,4.37
2017-12-30T20:42:17.771Z,3.97
2017-12-30T20:44:45.247Z,4.43
2017-12-30T20:47:12.730Z,4.10
2017-12-30T20:49:40.223Z,3.80
2017-12-30T20:52:07.698Z,3.63
2017-12-30T20:54:35.187Z,4.33
2017-12-30T20:57:02.651Z,4.73
2017-12-30T20:59:30.136Z,4.83
2017-12-30T21:01:57.607Z,4.20
2017-12-30T21:04:25.852Z,4.27
2017-12-30T21:06:53.334Z,4.40
2017-12-30T21:09:20.836Z,3.10
2017-12-30T21:11:48.311Z,3.97
2017-12-30T21:14:15.835Z,3.83
2017-12-30T21:16:44.078Z,3.43
2017-12-30T21:19:12.225Z,4.23
2017-12-30T21:21:40.967Z,3.17
2017-12-30T21:24:08.439Z,3.00
2017-12-30T21:26:35.922Z,3.30
2017-12-30T21:29:03.409Z,2.83
2017-12-30T21:31:30.878Z,3.10
2017-12-30T21:33:58.350Z,2.80
2017-12-30T21:36:25.823Z,2.43
2017-12-30T21:38:54.063Z,2.37
2017-12-30T21:41:21.538Z,2.30
2017-12-30T21:43:49.011Z,2.17
2017-12-30T21:46:16.490Z,2.40
2017-12-30T21:48:43.960Z,1.90
2017-12-30T21:51:12.226Z,1.50
2017-12-30T21:53:39.700Z,1.63
2017-12-30T21:56:07.178Z,1.70
2017-12-30T21:58:34.660Z,1.57
2017-12-30T22:01:02.137Z,1.60
2017-12-30T22:03:29.614Z,1.37
2017-12-30T22:05:57.105Z,1.13
2017-12-30T22:08:25.391Z,1.37
2017-12-30T22:10:52.859Z,1.37
2017-12-30T22:13:20.332Z,1.40
2017-12-30T22:15:47.798Z,1.37
2017-12-30T22:18:16.047Z,1.17
2017-12-30T22:20:43.517Z,1.20
2017-12-30T22:23:11.578Z,1.00
2017-12-30T22:25:39.046Z,0.93
2017-12-30T22:28:07.282Z,1.00
2017-12-30T22:30:34.757Z,0.70
2017-12-30T22:33:02.234Z,0.73
2017-12-30T22:35:29.713Z,0.80
2017-12-30T22:37:57.195Z,0.93
2017-12-30T22:40:24.672Z,1.40
2017-12-30T22:42:52.153Z,1.07
2017-12-30T22:45:19.621Z,1.53
2017-12-30T22:47:47.865Z,1.20
2017-12-30T22:50:15.342Z,1.30
2017-12-30T22:52:42.819Z,1.40
2017-12-30T22:55:10.290Z,1.50
2017-12-30T22:57:37.772Z,1.50
2017-12-30T23:00:05.246Z,1.00
2017-12-30T23:02:32.733Z,1.80
2017-12-30T23:05:00.206Z,1.40
2017-12-30T23:07:27.669Z,1.73
2017-12-30T23:09:55.912Z,1.80
2017-12-30T23:12:23.379Z,1.00
2017-12-30T23:14:50.855Z,1.10
2017-12-30T23:17:18.334Z,1.40
2017-12-30T23:19:45.816Z,1.33
2017-12-30T23:22:13.290Z,1.40
2017-12-30T23:24:40.771Z,1.77
2017-12-30T23:27:08.245Z,2.67
2017-12-30T23:29:35.729Z,1.40
2017-12-30T23:32:03.192Z,1.20
2017-12-30T23:34:31.445Z,1.10
2017-12-30T23:36:58.916Z,2.47
2017-12-30T23:39:26.401Z,1.70
2017-12-30T23:41:53.875Z,1.93
2017-12-30T23:44:21.354Z,3.20
2017-12-30T23:46:48.828Z,2.77
2017-12-30T23:49:16.298Z,1.20
2017-12-30T23:51:43.757Z,2.87
2017-12-30T23:54:12.001Z,3.17
2017-12-30T23:56:39.474Z,2.87
2017-12-30T23:59:06.949Z,2.23
